createdAt,value
2024-01-08T00:00:40.634Z,-0.20
2024-01-08T00:03:07.453Z,-0.20
2024-01-08T00:05:39.846Z,-0.20
2024-01-08T00:08:08.100Z,-0.30
2024-01-08T00:10:36.017Z,-0.30
2024-01-08T00:13:02.796Z,-0.30
2024-01-08T00:15:29.583Z,-0.30
2024-01-08T00:17:56.436Z,-0.20
2024-01-08T00:20:23.228Z,-0.20
2024-01-08T00:22:50.087Z,-0.30
2024-01-08T00:25:16.944Z,-0.20
2024-01-08T00:27:43.610Z,-0.30
2024-01-08T00:30:11.092Z,-0.30
2024-01-08T00:32:37.923Z,-0.30
2024-01-08T00:35:05.533Z,-0.40
2024-01-08T00:37:34.321Z,-0.40
2024-01-08T00:40:01.075Z,-0.40
2024-01-08T01:21:24.327Z,-0.80
2024-01-08T01:23:52.289Z,-0.70
2024-01-08T01:26:19.134Z,-0.70
2024-01-08T01:28:45.850Z,-0.70
2024-01-08T01:31:13.365Z,-0.80
2024-01-08T01:33:40.424Z,-0.80
2024-01-08T01:36:07.433Z,-0.80
2024-01-08T01:38:34.186Z,-0.90
2024-01-08T01:41:01.136Z,-0.80
2024-01-08T01:43:32.257Z,-0.80
2024-01-08T01:46:05.421Z,-0.80
2024-01-08T01:48:32.513Z,-0.80
2024-01-08T01:50:59.896Z,-0.80
2024-01-08T01:53:27.116Z,-0.80
2024-01-08T01:55:55.147Z,-0.90
2024-01-08T01:58:22.733Z,-0.90
2024-01-08T02:00:49.591Z,-1.00
2024-01-08T02:03:17.476Z,-1.00
2024-01-08T02:05:44.535Z,-1.00
2024-01-08T02:08:14.213Z,-1.00
2024-01-08T02:10:41.369Z,-0.90
2024-01-08T02:13:09.056Z,-0.90
2024-01-08T02:15:35.791Z,-0.90
2024-01-08T02:18:02.727Z,-0.90
2024-01-08T02:20:29.711Z,-1.00
2024-01-08T02:22:59.394Z,-1.10
2024-01-08T02:25:27.501Z,-1.20
2024-01-08T02:27:54.145Z,-1.10
2024-01-08T02:30:20.955Z,-1.00
2024-01-08T02:32:47.808Z,-1.20
2024-01-08T02:35:15.266Z,-1.10
2024-01-08T02:37:42.003Z,-1.00
2024-01-08T02:40:09.109Z,-1.10
2024-01-08T02:42:39.673Z,-1.10
2024-01-08T02:45:07.072Z,-1.20
2024-01-08T02:47:38.520Z,-1.20
2024-01-08T02:50:07.264Z,-1.20
2024-01-08T02:52:34.446Z,-1.20
2024-01-08T02:55:01.398Z,-1.10
2024-01-08T02:57:28.988Z,-1.10
2024-01-08T02:59:56.383Z,-1.10
2024-01-08T03:02:25.085Z,-1.10
2024-01-08T03:04:53.315Z,-1.10
2024-01-08T03:07:21.395Z,-1.20
2024-01-08T03:09:48.674Z,-1.20
2024-01-08T03:12:15.599Z,-1.30
2024-01-08T03:14:44.385Z,-1.40
2024-01-08T03:17:11.152Z,-1.30
2024-01-08T03:19:38.691Z,-1.30
2024-01-08T03:22:06.027Z,-1.40
2024-01-08T03:24:33.079Z,-1.30
2024-01-08T03:26:59.865Z,-1.30
2024-01-08T03:29:27.484Z,-1.40
2024-01-08T03:31:54.762Z,-1.40
2024-01-08T03:34:21.562Z,-1.30
2024-01-08T03:36:51.708Z,-1.30
2024-01-08T03:39:18.730Z,-1.20
2024-01-08T03:41:45.556Z,-1.30
2024-01-08T03:44:12.353Z,-1.20
2024-01-08T03:46:39.671Z,-1.20
2024-01-08T03:49:07.963Z,-1.20
2024-01-08T03:51:35.820Z,-1.20
2024-01-08T03:54:02.712Z,-1.10
2024-01-08T03:56:29.628Z,-1.10
2024-01-08T03:58:56.826Z,-1.00
2024-01-08T04:01:23.612Z,-1.00
2024-01-08T04:03:50.385Z,-1.00
2024-01-08T04:06:17.779Z,-1.00
2024-01-08T04:08:44.690Z,-0.90
2024-01-08T04:11:11.427Z,-0.90
2024-01-08T04:13:39.769Z,-0.80
2024-01-08T04:16:06.972Z,-0.80
2024-01-08T04:18:34.013Z,-0.90
2024-01-08T04:21:00.825Z,-0.90
2024-01-08T04:23:27.706Z,-0.90
2024-01-08T04:25:54.460Z,-0.90
2024-01-08T04:28:22.288Z,-0.90
2024-01-08T04:30:49.577Z,-0.90
2024-01-08T04:33:16.543Z,-0.90
2024-01-08T04:35:43.290Z,-0.80
2024-01-08T04:38:10.029Z,-0.80
2024-01-08T04:40:36.767Z,-0.70
2024-01-08T04:43:03.615Z,-0.70
2024-01-08T04:45:31.176Z,-0.60
2024-01-08T04:47:58.120Z,-0.60
2024-01-08T04:50:25.105Z,-0.60
2024-01-08T04:52:51.876Z,-0.60
2024-01-08T04:55:20.334Z,-0.60
2024-01-08T04:57:50.500Z,-0.60
2024-01-08T05:00:17.302Z,-0.60
2024-01-08T05:02:44.095Z,-0.60
2024-01-08T05:05:12.781Z,-0.60
2024-01-08T05:07:39.581Z,-0.50
2024-01-08T05:10:06.675Z,-0.50
2024-01-08T05:12:33.549Z,-0.50
2024-01-08T05:15:01.520Z,-0.50
2024-01-08T05:17:28.331Z,-0.50
2024-01-08T05:19:55.293Z,-0.60
2024-01-08T05:22:21.974Z,-0.40
2024-01-08T05:24:48.688Z,-0.50
2024-01-08T05:27:15.516Z,-0.40
2024-01-08T05:29:42.778Z,-0.40
2024-01-08T05:32:09.721Z,-0.40
2024-01-08T05:34:37.209Z,-0.30
2024-01-08T05:37:04.115Z,-0.40
2024-01-08T05:39:30.891Z,-0.40
2024-01-08T05:41:57.604Z,-0.40
2024-01-08T05:44:24.435Z,-0.40
2024-01-08T05:46:51.340Z,-0.30
2024-01-08T05:49:18.178Z,-0.20
2024-01-08T05:51:44.928Z,-0.30
2024-01-08T05:54:11.617Z,-0.30
2024-01-08T05:56:38.765Z,-0.20
2024-01-08T05:59:05.820Z,-0.30
2024-01-08T06:01:32.526Z,-0.30
2024-01-08T06:03:59.199Z,-0.10
2024-01-08T06:06:26.267Z,-0.20
2024-01-08T06:08:53.038Z,-0.20
2024-01-08T06:11:19.837Z,-0.10
2024-01-08T06:13:46.553Z,-0.20
2024-01-08T06:16:18.994Z,-0.10
2024-01-08T06:18:45.971Z,-0.20
2024-01-08T06:21:12.864Z,-0.20
2024-01-08T06:23:39.607Z,-0.20
2024-01-08T06:26:06.428Z,-0.20
2024-01-08T06:28:33.830Z,-0.20
2024-01-08T06:31:03.547Z,-0.10
2024-01-08T06:33:30.393Z,-0.10
2024-01-08T06:35:57.945Z,-0.10
2024-01-08T06:38:24.743Z,0.00
2024-01-08T06:40:51.572Z,0.00
2024-01-08T06:43:18.369Z,0.00
2024-01-08T06:45:45.185Z,0.10
2024-01-08T06:48:12.883Z,0.10
2024-01-08T06:50:41.380Z,0.10
2024-01-08T06:53:08.310Z,0.10
2024-01-08T06:55:35.040Z,0.20
2024-01-08T06:58:01.831Z,0.20
2024-01-08T07:00:29.478Z,0.20
2024-01-08T07:02:56.533Z,0.20
2024-01-08T07:05:23.656Z,0.30
2024-01-08T07:07:50.566Z,0.40
2024-01-08T07:10:17.268Z,0.40
2024-01-08T07:12:44.021Z,0.30
2024-01-08T07:15:44.610Z,0.30
2024-01-08T07:18:11.645Z,0.30
2024-01-08T07:20:40.013Z,0.20
2024-01-08T07:23:09.493Z,0.20
2024-01-08T07:25:40.428Z,0.30
2024-01-08T07:28:11.431Z,0.50
2024-01-08T07:30:38.945Z,0.40
2024-01-08T07:33:05.935Z,0.30
2024-01-08T07:35:32.781Z,0.30
2024-01-08T07:37:59.531Z,0.30
2024-01-08T07:40:27.196Z,0.30
2024-01-08T07:42:57.889Z,0.30
2024-01-08T07:45:29.029Z,0.40
2024-01-08T07:47:56.397Z,0.40
2024-01-08T07:50:23.497Z,0.40
2024-01-08T07:52:50.309Z,0.40
2024-01-08T07:55:17.564Z,0.50
2024-01-08T07:57:44.342Z,0.40
2024-01-08T08:00:13.151Z,0.40
2024-01-08T08:02:40.766Z,0.40
2024-01-08T08:05:08.366Z,0.40
2024-01-08T08:07:36.448Z,0.30
2024-01-08T08:10:03.991Z,0.40
2024-01-08T08:12:31.879Z,0.40
2024-01-08T08:14:59.819Z,0.40
2024-01-08T08:17:27.788Z,0.50
2024-01-08T08:19:55.078Z,0.40
2024-01-08T08:22:21.979Z,0.30
2024-01-08T08:24:49.167Z,0.30
2024-01-08T08:27:16.434Z,0.30
2024-01-08T08:29:46.438Z,0.20
2024-01-08T08:32:13.618Z,0.10
2024-01-08T08:34:40.535Z,0.20
2024-01-08T08:37:11.648Z,0.10
2024-01-08T08:39:39.191Z,0.20
2024-01-08T08:42:06.957Z,0.20
2024-01-08T08:44:34.003Z,0.10
2024-01-08T08:47:01.118Z,0.30
2024-01-08T08:49:30.440Z,0.20
2024-01-08T08:51:58.035Z,0.30
2024-01-08T08:54:24.703Z,0.40
2024-01-08T08:56:51.368Z,0.30
2024-01-08T08:59:18.052Z,0.30
2024-01-08T09:01:44.737Z,0.40
2024-01-08T09:04:11.510Z,0.30
2024-01-08T09:06:39.161Z,0.40
2024-01-08T09:09:06.027Z,0.30
2024-01-08T09:11:33.557Z,0.30
2024-01-08T09:14:00.750Z,0.30
2024-01-08T09:16:27.532Z,0.20
2024-01-08T09:18:54.946Z,0.40
2024-01-08T09:21:21.834Z,0.30
2024-01-08T09:23:49.038Z,0.30
2024-01-08T09:26:16.813Z,0.30
2024-01-08T09:28:43.556Z,0.30
2024-01-08T09:31:10.474Z,0.30
2024-01-08T09:33:37.637Z,0.30
2024-01-08T09:36:05.165Z,0.40
2024-01-08T09:38:31.887Z,0.40
2024-01-08T09:41:01.573Z,0.40
2024-01-08T09:43:35.969Z,0.30
2024-01-08T09:46:03.201Z,0.40
2024-01-08T09:48:31.308Z,0.40
2024-01-08T09:51:01.153Z,0.50
2024-01-08T09:53:32.733Z,0.40
2024-01-08T09:56:00.495Z,0.40
2024-01-08T09:58:27.929Z,0.40
2024-01-08T10:00:55.245Z,0.40
2024-01-08T10:03:22.164Z,0.40
2024-01-08T10:05:49.250Z,0.30
2024-01-08T10:08:17.969Z,0.30
2024-01-08T10:10:44.915Z,0.60
2024-01-08T10:13:13.171Z,0.50
2024-01-08T10:15:39.915Z,0.50
2024-01-08T10:18:10.165Z,0.50
2024-01-08T10:20:37.957Z,0.50
2024-01-08T10:23:09.826Z,0.50
2024-01-08T10:25:40.057Z,0.50
2024-01-08T10:28:10.386Z,0.50
2024-01-08T10:30:37.456Z,0.50
2024-01-08T10:33:05.063Z,0.50
2024-01-08T10:35:33.233Z,0.40
2024-01-08T10:38:00.804Z,0.40
2024-01-08T10:40:30.972Z,0.40
2024-01-08T10:42:58.318Z,0.40
2024-01-08T10:45:25.144Z,0.40
2024-01-08T10:48:09.839Z,0.40
2024-01-08T10:50:39.489Z,0.40
2024-01-08T10:53:12.201Z,0.50
2024-01-08T10:55:42.390Z,0.50
2024-01-08T10:58:17.790Z,0.50
2024-01-08T11:00:44.987Z,0.70
2024-01-08T11:03:12.060Z,0.70
2024-01-08T11:05:39.234Z,0.70
2024-01-08T11:08:07.232Z,0.70
2024-01-08T11:10:34.135Z,0.60
2024-01-08T11:13:00.841Z,0.50
2024-01-08T11:15:29.236Z,0.60
2024-01-08T11:17:59.930Z,0.50
2024-01-08T11:20:45.208Z,0.60
2024-01-08T11:23:37.997Z,0.50
2024-01-08T11:26:10.282Z,0.70
2024-01-08T11:28:39.798Z,0.80
2024-01-08T11:31:25.154Z,1.00
2024-01-08T11:34:22.214Z,1.20
2024-01-08T11:36:49.570Z,1.10
2024-01-08T11:39:21.390Z,1.10
2024-01-08T11:41:48.711Z,1.10
2024-01-08T11:44:15.625Z,0.90
2024-01-08T11:46:45.890Z,0.90
2024-01-08T11:49:12.871Z,1.00
2024-01-08T11:51:45.624Z,0.90
2024-01-08T11:54:19.486Z,0.90
2024-01-08T11:56:46.497Z,0.80
2024-01-08T11:59:13.364Z,0.70
2024-01-08T12:01:40.886Z,1.00
2024-01-08T12:04:08.293Z,1.00
2024-01-08T12:06:35.761Z,1.10
2024-01-08T12:09:02.634Z,1.30
2024-01-08T12:11:29.294Z,1.30
2024-01-08T12:13:56.194Z,1.10
2024-01-08T12:16:22.931Z,1.10
2024-01-08T12:18:50.464Z,1.10
2024-01-08T12:21:18.002Z,0.90
2024-01-08T12:23:45.017Z,0.90
2024-01-08T12:26:11.933Z,0.90
2024-01-08T12:28:39.682Z,1.00
2024-01-08T12:31:07.188Z,1.00
2024-01-08T12:33:34.216Z,1.00
2024-01-08T12:36:01.354Z,1.00
2024-01-08T12:38:32.237Z,1.00
2024-01-08T12:40:59.336Z,1.10
2024-01-08T12:43:26.062Z,1.20
2024-01-08T12:45:52.851Z,1.40
2024-01-08T12:48:19.866Z,1.60
2024-01-08T12:50:49.071Z,1.80
2024-01-08T12:53:16.190Z,1.70
2024-01-08T12:55:42.950Z,1.80
2024-01-08T12:58:10.122Z,1.80
2024-01-08T13:00:36.945Z,1.70
2024-01-08T13:03:04.281Z,1.90
2024-01-08T13:05:31.269Z,1.90
2024-01-08T13:07:58.194Z,1.90
2024-01-08T13:10:25.692Z,1.80
2024-01-08T13:12:52.397Z,1.80
2024-01-08T13:15:19.132Z,1.90
2024-01-08T13:17:45.868Z,2.00
2024-01-08T13:20:22.404Z,1.90
2024-01-08T13:22:53.616Z,1.90
2024-01-08T13:25:21.523Z,2.00
2024-01-08T13:27:48.980Z,2.00
2024-01-08T13:30:15.848Z,1.80
2024-01-08T13:32:43.332Z,1.70
2024-01-08T13:35:12.913Z,1.80
2024-01-08T13:37:40.195Z,1.80
2024-01-08T13:40:07.429Z,1.90
2024-01-08T13:42:36.838Z,1.80
2024-01-08T13:45:05.339Z,1.80
2024-01-08T13:47:32.336Z,1.80
2024-01-08T13:49:59.164Z,1.70
2024-01-08T13:52:27.344Z,1.70
2024-01-08T13:54:54.019Z,1.80
2024-01-08T13:57:20.667Z,1.70
2024-01-08T13:59:47.378Z,1.70
2024-01-08T14:02:14.366Z,1.70
2024-01-08T14:04:41.298Z,1.80
2024-01-08T14:07:08.127Z,1.70
2024-01-08T14:09:34.741Z,1.60
2024-01-08T14:12:01.450Z,1.60
2024-01-08T14:14:28.159Z,1.70
2024-01-08T14:16:55.160Z,1.60
2024-01-08T14:19:22.248Z,1.60
2024-01-08T14:21:49.208Z,1.40
2024-01-08T14:24:15.853Z,1.50
2024-01-08T14:26:42.516Z,1.40
2024-01-08T14:29:09.266Z,1.40
2024-01-08T14:31:35.965Z,1.30
2024-01-08T14:34:03.685Z,1.30
2024-01-08T14:36:30.622Z,1.20
2024-01-08T14:38:58.157Z,1.20
2024-01-08T14:41:25.140Z,1.20
2024-01-08T14:43:52.168Z,1.20
2024-01-08T14:46:18.909Z,1.30
2024-01-08T14:48:45.723Z,1.00
2024-01-08T14:51:13.919Z,0.80
2024-01-08T14:53:41.847Z,0.70
2024-01-08T14:56:08.889Z,0.70
2024-01-08T14:58:38.509Z,0.70
2024-01-08T15:01:09.021Z,0.80
2024-01-08T15:03:35.809Z,0.60
2024-01-08T15:06:02.923Z,0.60
2024-01-08T15:08:29.949Z,0.60
2024-01-08T15:10:58.439Z,0.60
2024-01-08T15:13:25.155Z,0.60
2024-01-08T15:15:52.612Z,0.50
2024-01-08T15:18:19.498Z,0.50
2024-01-08T15:20:46.340Z,0.50
2024-01-08T15:23:14.345Z,0.50
2024-01-08T15:25:41.247Z,0.50
2024-01-08T15:28:07.992Z,0.50
2024-01-08T15:30:34.681Z,0.40
2024-01-08T15:33:01.739Z,0.50
2024-01-08T15:35:29.374Z,0.50
2024-01-08T15:37:56.211Z,0.50
2024-01-08T15:40:23.314Z,0.40
2024-01-08T15:42:50.017Z,0.40
2024-01-08T15:45:16.848Z,0.40
2024-01-08T15:47:43.668Z,0.30
2024-01-08T15:50:12.208Z,0.20
2024-01-08T15:52:39.096Z,0.20
2024-01-08T15:55:06.632Z,0.30
2024-01-08T15:57:33.417Z,0.30
2024-01-08T16:00:00.244Z,0.20
2024-01-08T16:02:28.460Z,0.10
2024-01-08T16:04:56.484Z,0.20
2024-01-08T16:07:23.287Z,0.10
2024-01-08T16:09:50.774Z,0.10
2024-01-08T16:12:17.496Z,0.10
2024-01-08T16:14:44.343Z,0.30
2024-01-08T16:17:11.166Z,0.10
2024-01-08T16:19:38.017Z,0.10
2024-01-08T16:22:04.734Z,0.20
2024-01-08T16:24:31.396Z,0.10
2024-01-08T16:26:58.068Z,0.00
2024-01-08T16:29:24.733Z,-0.10
2024-01-08T16:31:51.379Z,0.00
2024-01-08T16:34:18.214Z,0.10
2024-01-08T16:36:45.090Z,0.10
2024-01-08T16:39:11.862Z,0.10
2024-01-08T16:41:38.651Z,0.00
2024-01-08T16:44:05.888Z,-0.10
2024-01-08T16:46:33.250Z,0.00
2024-01-08T16:49:00.218Z,0.00
2024-01-08T16:51:27.317Z,-0.10
2024-01-08T16:53:54.196Z,-0.10
2024-01-08T16:56:20.901Z,-0.10
2024-01-08T16:58:50.102Z,-0.20
2024-01-08T17:01:16.872Z,-0.20
2024-01-08T17:03:46.105Z,-0.20
2024-01-08T17:06:13.695Z,-0.20
2024-01-08T17:08:42.206Z,-0.10
2024-01-08T17:11:09.108Z,-0.10
2024-01-08T17:13:35.824Z,-0.20
2024-01-08T17:16:02.518Z,-0.20
2024-01-08T17:18:29.223Z,-0.30
2024-01-08T17:20:56.134Z,-0.20
2024-01-08T17:23:22.973Z,-0.30
2024-01-08T17:25:49.809Z,-0.20
2024-01-08T17:28:16.845Z,-0.20
2024-01-08T17:30:43.792Z,-0.20
2024-01-08T17:33:11.268Z,-0.30
2024-01-08T17:35:38.886Z,-0.30
2024-01-08T17:38:05.789Z,-0.20
2024-01-08T17:40:32.647Z,-0.40
2024-01-08T17:42:59.383Z,-0.40
2024-01-08T17:45:26.049Z,-0.40
2024-01-08T17:47:54.012Z,-0.40
2024-01-08T17:50:20.891Z,-0.30
2024-01-08T17:52:47.616Z,-0.40
2024-01-08T17:55:14.566Z,-0.50
2024-01-08T17:57:41.265Z,-0.40
2024-01-08T18:00:08.631Z,-0.40
2024-01-08T18:02:35.379Z,-0.40
2024-01-08T18:05:02.485Z,-0.30
2024-01-08T18:07:29.557Z,-0.40
2024-01-08T18:09:56.387Z,-0.30
2024-01-08T18:12:23.928Z,-0.40
2024-01-08T18:14:50.774Z,-0.60
2024-01-08T18:17:17.677Z,-0.50
2024-01-08T18:19:44.609Z,-0.50
2024-01-08T18:22:11.326Z,-0.50
2024-01-08T18:24:38.596Z,-0.50
2024-01-08T18:27:06.913Z,-0.60
2024-01-08T18:29:33.775Z,-0.60
2024-01-08T18:32:00.760Z,-0.60
2024-01-08T18:34:29.899Z,-0.60
2024-01-08T18:36:58.850Z,-0.60
2024-01-08T18:39:25.582Z,-0.60
2024-01-08T18:41:52.456Z,-0.60
2024-01-08T18:44:19.332Z,-0.50
2024-01-08T18:46:46.049Z,-0.50
2024-01-08T18:49:12.822Z,-0.50
2024-01-08T18:51:39.754Z,-0.50
2024-01-08T18:54:06.633Z,-0.50
2024-01-08T18:56:33.499Z,-0.50
2024-01-08T18:59:00.211Z,-0.60
2024-01-08T19:01:28.141Z,-0.50
2024-01-08T19:03:55.554Z,-0.60
2024-01-08T19:06:23.419Z,-0.50
2024-01-08T19:08:50.404Z,-0.50
2024-01-08T19:11:17.246Z,-0.70
2024-01-08T19:13:45.468Z,-0.60
2024-01-08T19:16:12.340Z,-0.70
2024-01-08T19:18:39.241Z,-0.60
2024-01-08T19:21:06.332Z,-0.70
2024-01-08T19:23:33.193Z,-0.60
2024-01-08T19:26:01.375Z,-0.70
2024-01-08T19:28:28.365Z,-0.70
2024-01-08T19:30:56.003Z,-0.70
2024-01-08T19:33:22.795Z,-0.70
2024-01-08T19:35:49.606Z,-0.60
2024-01-08T19:38:16.412Z,-0.70
2024-01-08T19:40:43.333Z,-0.70
2024-01-08T19:43:10.072Z,-0.70
2024-01-08T19:45:36.815Z,-0.70
2024-01-08T19:48:04.068Z,-0.70
2024-01-08T19:50:31.161Z,-0.70
2024-01-08T19:52:58.269Z,-0.80
2024-01-08T19:55:24.979Z,-0.70
2024-01-08T19:57:51.792Z,-0.80
2024-01-08T20:00:18.912Z,-0.80
2024-01-08T20:02:45.740Z,-0.70
2024-01-08T20:05:12.689Z,-0.70
2024-01-08T20:07:39.769Z,-0.70
2024-01-08T20:10:07.066Z,-0.70
2024-01-08T20:12:33.838Z,-0.80
2024-01-08T20:15:00.638Z,-0.80
2024-01-08T20:17:27.382Z,-0.80
2024-01-08T20:19:57.710Z,-0.70
2024-01-08T20:22:24.988Z,-0.80
2024-01-08T20:24:52.271Z,-0.80
2024-01-08T20:27:19.098Z,-1.00
2024-01-08T20:29:46.755Z,-0.90
2024-01-08T20:32:13.655Z,-0.80
2024-01-08T20:34:40.412Z,-0.90
2024-01-08T20:37:07.212Z,-0.90
2024-01-08T20:39:33.945Z,-0.90
2024-01-08T20:42:01.089Z,-0.90
2024-01-08T20:44:28.806Z,-0.90
2024-01-08T20:46:55.515Z,-0.90
2024-01-08T20:49:27.757Z,-1.00
2024-01-08T20:51:58.246Z,-0.90
2024-01-08T20:54:25.259Z,-0.90
2024-01-08T20:56:52.173Z,-1.00
2024-01-08T20:59:19.018Z,-1.00
2024-01-08T21:01:45.762Z,-1.00
2024-01-08T21:04:14.537Z,-1.00
2024-01-08T21:06:41.390Z,-1.00
2024-01-08T21:09:08.338Z,-1.00
2024-01-08T21:11:35.045Z,-1.10
2024-01-08T21:14:01.715Z,-1.00
2024-01-08T21:16:28.479Z,-1.10
2024-01-08T21:18:55.466Z,-1.00
2024-01-08T21:21:22.945Z,-1.10
2024-01-08T21:23:49.702Z,-1.00
2024-01-08T21:26:16.464Z,-1.10
2024-01-08T21:28:43.335Z,-1.30
2024-01-08T21:31:12.177Z,-1.20
2024-01-08T21:33:40.469Z,-1.10
2024-01-08T21:36:07.777Z,-1.10
2024-01-08T21:38:37.424Z,-1.10
2024-01-08T21:41:07.328Z,-1.10
2024-01-08T21:43:34.271Z,-1.20
2024-01-08T21:46:04.433Z,-1.10
2024-01-08T21:48:31.604Z,-1.10
2024-01-08T21:50:58.420Z,-1.20
2024-01-08T21:53:27.111Z,-1.10
2024-01-08T21:55:54.495Z,-1.10
2024-01-08T21:58:21.518Z,-1.10
2024-01-08T22:00:48.453Z,-1.20
2024-01-08T22:03:15.354Z,-1.40
2024-01-08T22:05:42.218Z,-1.20
2024-01-08T22:08:09.028Z,-1.30
2024-01-08T22:10:35.732Z,-1.30
2024-01-08T22:13:02.424Z,-1.40
2024-01-08T22:15:29.190Z,-1.50
2024-01-08T22:17:56.354Z,-1.30
2024-01-08T22:20:24.394Z,-1.40
2024-01-08T22:22:51.212Z,-1.30
2024-01-08T22:25:17.910Z,-1.30
2024-01-08T22:27:44.633Z,-1.40
2024-01-08T22:30:11.638Z,-1.50
2024-01-08T22:32:38.555Z,-1.40
2024-01-08T22:35:05.687Z,-1.30
2024-01-08T22:37:32.452Z,-1.50
2024-01-08T22:40:00.007Z,-1.50
2024-01-08T22:42:29.808Z,-1.40
2024-01-08T22:44:57.165Z,-1.50
2024-01-08T22:47:24.372Z,-1.50
2024-01-08T22:49:52.007Z,-1.50
2024-01-08T22:52:18.865Z,-1.50
2024-01-08T22:54:45.563Z,-1.50
2024-01-08T22:57:12.278Z,-1.40
2024-01-08T22:59:38.987Z,-1.40
2024-01-08T23:02:05.827Z,-1.50
2024-01-08T23:04:32.545Z,-1.50
2024-01-08T23:06:59.282Z,-1.60
2024-01-08T23:09:25.987Z,-1.50
2024-01-08T23:11:52.785Z,-1.40
2024-01-08T23:14:19.650Z,-1.50
2024-01-08T23:16:46.587Z,-1.50
2024-01-08T23:19:13.503Z,-1.60
2024-01-08T23:21:44.033Z,-1.70
2024-01-08T23:24:11.944Z,-1.50
2024-01-08T23:26:46.124Z,-1.60
2024-01-08T23:29:13.565Z,-1.50
2024-01-08T23:31:40.569Z,-1.60
2024-01-08T23:34:14.831Z,-1.60
2024-01-08T23:36:48.189Z,-1.60
2024-01-08T23:39:14.929Z,-1.60
2024-01-08T23:41:41.705Z,-1.70
2024-01-08T23:44:11.273Z,-1.70
2024-01-08T23:46:40.040Z,-1.60
2024-01-08T23:49:06.820Z,-1.60
2024-01-08T23:51:33.574Z,-1.60
2024-01-08T23:54:00.295Z,-1.70
2024-01-08T23:56:26.959Z,-1.70
2024-01-08T23:58:53.618Z,-1.80
